Time;durP1;ratioP1;P1;durP2;ratioP2;P2;SDS_P1;SDS_P2;PMS_P1;PMS_P2;Temp;Humidity;BMP_temperature;BMP_pressure;BME280_temperature;BME280_humidity;BME280_pressure;Samples;Min_cycle;Max_cycle;Signal;HPM_P1;HPM_P2
2021/08/12 00:00:54;;;;;;;8.50;5.33;;;15.50;99.90;;;;;;4440174;32;20179;-71
2021/08/12 00:03:21;;;;;;;8.03;5.17;;;15.40;99.90;;;;;;4440505;32;20142;-71
2021/08/12 00:05:48;;;;;;;8.43;5.63;;;15.40;99.90;;;;;;4440368;32;20139;-71
2021/08/12 00:08:15;;;;;;;7.73;5.20;;;15.40;99.90;;;;;;4439364;32;20154;-71
2021/08/12 00:10:41;;;;;;;9.27;5.47;;;15.40;99.90;;;;;;4440439;32;20367;-73
2021/08/12 00:13:08;;;;;;;10.30;5.30;;;15.40;99.90;;;;;;4440299;32;20190;-72
2021/08/12 00:15:35;;;;;;;9.20;5.70;;;15.40;99.90;;;;;;4439248;32;20187;-72
2021/08/12 00:18:02;;;;;;;10.43;5.60;;;15.30;99.90;;;;;;4440100;32;20342;-72
2021/08/12 00:20:28;;;;;;;11.10;5.73;;;15.30;99.90;;;;;;4439974;32;20214;-72
2021/08/12 00:22:55;;;;;;;8.17;5.80;;;15.30;99.90;;;;;;4439989;32;20368;-73
2021/08/12 00:25:22;;;;;;;11.67;6.30;;;15.20;99.90;;;;;;4438622;32;20448;-73
2021/08/12 00:27:49;;;;;;;10.37;6.23;;;15.20;99.90;;;;;;4438913;32;20166;-73
2021/08/12 00:30:16;;;;;;;13.43;6.47;;;15.20;99.90;;;;;;4438378;32;20435;-73
2021/08/12 00:32:43;;;;;;;10.63;6.13;;;15.20;99.90;;;;;;4440216;32;20139;-73
2021/08/12 00:35:10;;;;;;;11.90;6.30;;;15.10;99.90;;;;;;4437706;32;20242;-72
2021/08/12 00:37:37;;;;;;;9.33;6.23;;;15.10;99.90;;;;;;4440427;32;20383;-72
2021/08/12 00:40:05;;;;;;;9.53;6.10;;;15.10;99.90;;;;;;4439789;32;20207;-73
2021/08/12 00:42:31;;;;;;;12.60;8.00;;;15.10;99.90;;;;;;4440234;32;20196;-73
2021/08/12 00:44:58;;;;;;;11.00;6.40;;;15.10;99.90;;;;;;4437756;32;20231;-72
2021/08/12 00:47:25;;;;;;;10.53;6.57;;;15.00;99.90;;;;;;4439050;32;20143;-72
2021/08/12 00:49:52;;;;;;;11.43;7.30;;;15.00;99.90;;;;;;4439913;32;20194;-72
2021/08/12 00:52:20;;;;;;;11.80;7.20;;;14.90;99.90;;;;;;4439903;32;20218;-72
2021/08/12 00:54:48;;;;;;;9.80;6.60;;;14.90;99.90;;;;;;4439609;32;20222;-72
2021/08/12 00:57:18;;;;;;;11.83;7.77;;;14.90;99.90;;;;;;4438332;32;20134;-72
2021/08/12 00:59:44;;;;;;;12.57;8.00;;;14.90;99.90;;;;;;4439539;32;20472;-72
2021/08/12 01:02:15;;;;;;;11.73;7.30;;;14.80;99.90;;;;;;4440368;32;20134;-72
2021/08/12 01:04:46;;;;;;;14.30;7.80;;;14.80;99.90;;;;;;4442235;32;20170;-72
2021/08/12 01:07:26;;;;;;;11.80;7.63;;;14.80;99.90;;;;;;4442792;32;20131;-72
2021/08/12 01:09:58;;;;;;;15.07;7.93;;;14.70;99.90;;;;;;4441416;32;20127;-72
2021/08/12 01:12:43;;;;;;;11.90;8.20;;;14.70;99.90;;;;;;4442773;32;20433;-72
2021/08/12 01:15:18;;;;;;;10.30;7.30;;;14.70;99.90;;;;;;4441064;32;20134;-72
2021/08/12 01:17:52;;;;;;;12.30;7.90;;;14.70;99.90;;;;;;4441725;32;20150;-72
2021/08/12 01:20:28;;;;;;;14.33;7.90;;;14.70;99.90;;;;;;4440848;32;20435;-72
2021/08/12 01:22:56;;;;;;;14.53;8.13;;;14.60;99.90;;;;;;4440887;32;20182;-72
2021/08/12 01:25:27;;;;;;;12.93;7.70;;;14.60;99.90;;;;;;4442473;32;20135;-72
2021/08/12 01:27:55;;;;;;;11.53;7.73;;;14.60;99.90;;;;;;4441872;32;20211;-73
2021/08/12 01:30:26;;;;;;;12.37;8.03;;;14.60;99.90;;;;;;4440442;32;20156;-72
2021/08/12 01:33:13;;;;;;;14.33;8.43;;;14.50;99.90;;;;;;4440999;32;20177;-72
2021/08/12 01:35:41;;;;;;;11.40;7.93;;;14.50;99.90;;;;;;4442646;32;20179;-72
2021/08/12 01:38:12;;;;;;;12.13;8.30;;;14.50;99.90;;;;;;4442592;32;20193;-71
2021/08/12 01:40:40;;;;;;;15.20;8.70;;;14.40;99.90;;;;;;4442400;32;20184;-72
2021/08/12 01:43:16;;;;;;;13.03;8.20;;;14.40;99.90;;;;;;4442443;32;20207;-72
2021/08/12 01:45:48;;;;;;;14.87;9.13;;;14.40;99.90;;;;;;4442271;32;20492;-72
2021/08/12 01:48:16;;;;;;;13.77;8.80;;;14.40;99.90;;;;;;4440814;32;20188;-72
2021/08/12 01:50:44;;;;;;;15.33;9.10;;;14.30;99.90;;;;;;4442491;32;20130;-71
2021/08/12 01:53:11;;;;;;;15.50;9.50;;;14.30;99.90;;;;;;4440594;32;20138;-72
2021/08/12 01:55:38;;;;;;;15.97;9.60;;;14.30;99.90;;;;;;4441047;32;20473;-72
2021/08/12 01:58:06;;;;;;;17.07;9.90;;;14.20;99.90;;;;;;4441811;32;20166;-73
2021/08/12 02:00:35;;;;;;;16.17;9.83;;;14.20;99.90;;;;;;4442017;32;20190;-72
2021/08/12 02:03:03;;;;;;;14.37;9.63;;;14.20;99.90;;;;;;4441865;32;20138;-72
2021/08/12 02:05:32;;;;;;;16.63;9.90;;;14.10;99.90;;;;;;4441270;32;20475;-72
2021/08/12 02:07:59;;;;;;;15.57;9.80;;;14.10;99.90;;;;;;4441063;32;20224;-72
2021/08/12 02:10:26;;;;;;;15.33;9.70;;;14.10;99.90;;;;;;4442223;32;20176;-73
2021/08/12 02:12:53;;;;;;;16.43;9.40;;;14.10;99.90;;;;;;4440534;32;20135;-72
2021/08/12 02:15:20;;;;;;;15.40;9.00;;;14.00;99.90;;;;;;4439957;32;20138;-73
2021/08/12 02:17:47;;;;;;;16.13;9.27;;;14.00;99.90;;;;;;4441145;32;20130;-72
2021/08/12 02:20:16;;;;;;;13.73;9.00;;;14.10;99.90;;;;;;4439635;32;20150;-73
2021/08/12 02:22:48;;;;;;;14.17;8.77;;;14.00;99.90;;;;;;4440159;32;20180;-73
2021/08/12 02:25:38;;;;;;;15.90;9.53;;;14.00;99.90;;;;;;4440523;32;20416;-72
2021/08/12 02:28:08;;;;;;;12.67;8.70;;;14.00;99.90;;;;;;4440844;32;20178;-73
2021/08/12 02:30:39;;;;;;;15.37;9.47;;;13.90;99.90;;;;;;4440040;32;20174;-72
2021/08/12 02:33:08;;;;;;;14.40;9.40;;;13.90;99.90;;;;;;4441847;32;20143;-72
2021/08/12 02:35:37;;;;;;;13.77;9.20;;;13.90;99.90;;;;;;4440413;32;20391;-72
2021/08/12 02:38:06;;;;;;;16.50;9.53;;;13.90;99.90;;;;;;4440061;32;20400;-73
2021/08/12 02:40:33;;;;;;;12.83;8.93;;;13.90;99.90;;;;;;4441626;32;20223;-72
2021/08/12 02:43:01;;;;;;;14.07;9.23;;;13.90;99.90;;;;;;4439617;32;20176;-72
2021/08/12 02:45:29;;;;;;;13.33;8.83;;;13.80;99.90;;;;;;4440635;32;20162;-72
2021/08/12 02:47:57;;;;;;;16.03;9.40;;;13.80;99.90;;;;;;4441534;32;20183;-72
2021/08/12 02:50:24;;;;;;;16.30;9.90;;;13.80;99.90;;;;;;4441730;32;20130;-73
2021/08/12 02:52:51;;;;;;;17.57;10.13;;;13.70;99.90;;;;;;4441236;32;20495;-72
2021/08/12 02:55:19;;;;;;;14.57;9.53;;;13.70;99.90;;;;;;4439713;32;20487;-72
2021/08/12 02:57:46;;;;;;;14.00;8.80;;;13.70;99.90;;;;;;4440473;32;20174;-72
2021/08/12 03:00:13;;;;;;;15.17;9.57;;;13.70;99.90;;;;;;4440257;32;20436;-72
2021/08/12 03:02:48;;;;;;;13.63;8.60;;;13.70;99.90;;;;;;4439971;32;20416;-72
2021/08/12 03:05:19;;;;;;;14.07;9.40;;;13.70;99.90;;;;;;4441333;32;20490;-74
2021/08/12 03:07:50;;;;;;;13.30;9.10;;;13.70;99.90;;;;;;4440811;32;20192;-73
2021/08/12 03:10:19;;;;;;;14.13;9.27;;;13.70;99.90;;;;;;4439489;32;20131;-73
2021/08/12 03:12:47;;;;;;;15.30;8.87;;;13.60;99.90;;;;;;4439400;32;20398;-73
2021/08/12 03:15:15;;;;;;;13.47;9.20;;;13.60;99.90;;;;;;4439311;32;20445;-73
2021/08/12 03:17:42;;;;;;;13.97;8.87;;;13.50;99.90;;;;;;4441186;32;20143;-73
2021/08/12 03:20:10;;;;;;;13.67;8.93;;;13.50;99.90;;;;;;4439547;32;20210;-74
2021/08/12 03:22:37;;;;;;;16.10;9.27;;;13.60;99.90;;;;;;4441094;32;20138;-72
2021/08/12 03:25:04;;;;;;;14.80;8.93;;;13.50;99.90;;;;;;4440958;32;20130;-71
2021/08/12 03:27:31;;;;;;;13.07;9.10;;;13.50;99.90;;;;;;4440747;32;20157;-72
2021/08/12 03:29:58;;;;;;;13.47;9.03;;;13.50;99.90;;;;;;4439304;32;20146;-72
2021/08/12 03:32:24;;;;;;;17.43;9.30;;;13.50;99.90;;;;;;4440192;32;20146;-72
2021/08/12 03:34:51;;;;;;;15.77;9.50;;;13.50;99.90;;;;;;4439504;32;20195;-72
2021/08/12 03:37:18;;;;;;;16.40;9.10;;;13.50;99.90;;;;;;4440470;32;20154;-72
2021/08/12 03:39:45;;;;;;;16.33;8.87;;;13.50;99.90;;;;;;4440484;32;20208;-72
2021/08/12 03:42:12;;;;;;;14.27;9.50;;;13.50;99.90;;;;;;4439809;32;20436;-72
2021/08/12 03:44:38;;;;;;;14.80;9.47;;;13.50;99.90;;;;;;4438716;32;20142;-72
2021/08/12 03:47:06;;;;;;;13.40;9.07;;;13.50;99.90;;;;;;4440377;32;20193;-72
2021/08/12 03:49:34;;;;;;;16.13;9.30;;;13.50;99.90;;;;;;4438516;32;20197;-72
2021/08/12 03:52:00;;;;;;;12.50;8.87;;;13.60;99.90;;;;;;4439685;32;20533;-72
2021/08/12 03:54:27;;;;;;;15.40;9.20;;;13.60;99.90;;;;;;4439693;32;20170;-71
2021/08/12 03:56:54;;;;;;;12.10;9.00;;;13.60;99.90;;;;;;4440500;32;20138;-73
2021/08/12 03:59:21;;;;;;;14.03;9.30;;;13.60;99.90;;;;;;4438368;32;20152;-71
2021/08/12 04:01:49;;;;;;;13.93;9.30;;;13.70;99.90;;;;;;4440130;32;20157;-73
2021/08/12 04:04:16;;;;;;;17.67;9.17;;;13.70;99.90;;;;;;4438834;32;20229;-72
2021/08/12 04:06:43;;;;;;;14.13;9.07;;;13.70;99.90;;;;;;4438521;32;20187;-72
2021/08/12 04:09:10;;;;;;;13.43;9.33;;;13.70;99.90;;;;;;4439672;32;20181;-72
2021/08/12 04:11:37;;;;;;;16.87;9.60;;;13.70;99.90;;;;;;4440415;32;20509;-71
2021/08/12 04:14:04;;;;;;;14.37;9.93;;;13.70;99.90;;;;;;4438456;32;20393;-72
2021/08/12 04:16:31;;;;;;;14.57;9.53;;;13.70;99.90;;;;;;4438389;32;20528;-71
2021/08/12 04:18:58;;;;;;;15.33;9.67;;;13.70;99.90;;;;;;4439551;32;20165;-72
2021/08/12 04:21:24;;;;;;;17.17;9.97;;;13.80;99.90;;;;;;4439451;32;20173;-72
2021/08/12 04:23:51;;;;;;;17.07;9.50;;;13.80;99.90;;;;;;4439982;32;20133;-72
2021/08/12 04:26:18;;;;;;;15.83;10.57;;;13.80;99.90;;;;;;4439731;32;20213;-72
2021/08/12 04:28:47;;;;;;;18.63;10.87;;;13.90;99.90;;;;;;4437482;32;20440;-72
2021/08/12 04:31:14;;;;;;;17.77;11.20;;;13.90;99.90;;;;;;4439946;32;20181;-73
2021/08/12 04:33:41;;;;;;;16.40;10.33;;;13.90;99.90;;;;;;4438540;32;20173;-73
2021/08/12 04:36:07;;;;;;;19.93;11.07;;;14.00;99.90;;;;;;4439524;32;20203;-71
2021/08/12 04:38:34;;;;;;;18.40;11.93;;;14.00;99.90;;;;;;4439919;32;20183;-73
2021/08/12 04:41:02;;;;;;;18.70;11.17;;;14.10;99.90;;;;;;4438443;32;20146;-72
2021/08/12 04:43:30;;;;;;;15.77;10.47;;;14.00;99.90;;;;;;4438394;32;20153;-72
2021/08/12 04:45:57;;;;;;;17.50;10.80;;;14.20;99.90;;;;;;4438777;32;20209;-73
2021/08/12 04:48:24;;;;;;;18.03;11.20;;;14.20;99.90;;;;;;4440071;32;20188;-72
2021/08/12 04:50:51;;;;;;;17.13;10.23;;;14.30;99.90;;;;;;4440043;32;20218;-73
2021/08/12 04:53:18;;;;;;;17.37;11.40;;;14.40;99.90;;;;;;4440040;32;20160;-72
2021/08/12 04:55:45;;;;;;;14.87;10.40;;;14.40;99.90;;;;;;4438317;32;20185;-72
2021/08/12 04:58:12;;;;;;;18.40;10.47;;;14.50;99.90;;;;;;4437937;32;20193;-72
2021/08/12 05:00:39;;;;;;;18.00;10.20;;;14.60;99.90;;;;;;4440053;32;20183;-71
2021/08/12 05:03:06;;;;;;;17.47;10.70;;;14.70;99.90;;;;;;4439589;32;20217;-72
2021/08/12 05:05:33;;;;;;;17.20;10.97;;;14.80;99.90;;;;;;4439289;32;20149;-72
2021/08/12 05:08:00;;;;;;;16.10;9.87;;;14.80;99.90;;;;;;4439755;32;20171;-72
2021/08/12 05:10:26;;;;;;;19.10;10.57;;;14.90;99.90;;;;;;4439530;32;20143;-71
2021/08/12 05:12:53;;;;;;;18.37;9.87;;;15.00;99.90;;;;;;4439730;32;20513;-71
2021/08/12 05:15:20;;;;;;;15.37;10.07;;;15.10;99.90;;;;;;4438221;32;20188;-71
2021/08/12 05:17:47;;;;;;;15.87;9.77;;;15.20;99.90;;;;;;4438259;32;20130;-71
2021/08/12 05:20:14;;;;;;;15.30;9.87;;;15.30;99.90;;;;;;4439630;32;20130;-72
2021/08/12 05:22:41;;;;;;;16.93;9.80;;;15.30;99.90;;;;;;4438079;32;20158;-72
2021/08/12 05:25:08;;;;;;;16.13;9.90;;;15.40;99.90;;;;;;4438252;32;20151;-72
2021/08/12 05:27:35;;;;;;;14.60;9.47;;;15.50;99.90;;;;;;4439855;32;20213;-73
2021/08/12 05:30:02;;;;;;;17.83;10.27;;;15.50;99.90;;;;;;4438352;32;20217;-72
2021/08/12 05:32:29;;;;;;;16.37;9.27;;;15.60;99.90;;;;;;4439100;32;20135;-72
2021/08/12 05:34:56;;;;;;;15.40;9.83;;;15.70;99.90;;;;;;4437905;32;20130;-72
2021/08/12 05:37:22;;;;;;;17.23;9.77;;;15.70;99.90;;;;;;4439482;32;20420;-72
2021/08/12 05:39:49;;;;;;;14.10;8.90;;;15.80;99.90;;;;;;4439443;32;20139;-72
2021/08/12 05:42:16;;;;;;;16.80;9.40;;;15.80;99.90;;;;;;4439723;32;20419;-72
2021/08/12 05:44:43;;;;;;;16.33;9.50;;;15.90;99.90;;;;;;4439587;32;20134;-72
2021/08/12 05:47:12;;;;;;;14.43;9.23;;;16.00;99.90;;;;;;4439009;32;20188;-72
2021/08/12 05:49:40;;;;;;;14.43;9.07;;;16.00;99.90;;;;;;4441007;32;20392;-72
2021/08/12 05:52:06;;;;;;;17.60;8.87;;;16.10;99.90;;;;;;4441308;32;20131;-72
2021/08/12 05:54:33;;;;;;;13.17;7.97;;;16.20;99.90;;;;;;4441472;32;20143;-72
2021/08/12 05:57:00;;;;;;;13.07;8.47;;;16.20;99.90;;;;;;4440610;32;20183;-72
2021/08/12 05:59:27;;;;;;;11.93;7.50;;;16.30;99.90;;;;;;4442160;32;20159;-72
2021/08/12 06:01:53;;;;;;;12.60;7.90;;;16.40;99.90;;;;;;4441679;32;20436;-72
2021/08/12 06:04:21;;;;;;;13.13;7.73;;;16.40;99.90;;;;;;4442365;32;20126;-74
2021/08/12 06:06:47;;;;;;;12.43;7.83;;;16.50;99.90;;;;;;4440745;32;20142;-74
2021/08/12 06:09:14;;;;;;;12.67;7.43;;;16.60;99.90;;;;;;4441449;32;20135;-74
2021/08/12 06:11:41;;;;;;;14.07;7.70;;;16.70;99.90;;;;;;4442387;32;20127;-74
2021/08/12 06:14:08;;;;;;;12.70;7.47;;;16.80;99.90;;;;;;4442019;32;20130;-74
2021/08/12 06:16:35;;;;;;;18.40;7.80;;;16.80;99.90;;;;;;4442011;32;20180;-74
2021/08/12 06:19:02;;;;;;;14.40;6.60;;;16.90;99.90;;;;;;4441866;32;20469;-73
2021/08/12 06:21:29;;;;;;;12.47;6.10;;;17.00;99.90;;;;;;4441528;32;20134;-73
2021/08/12 06:23:55;;;;;;;10.03;5.83;;;17.20;99.90;;;;;;4441873;32;20329;-73
2021/08/12 06:26:22;;;;;;;10.47;5.70;;;17.30;99.90;;;;;;4441970;32;20174;-74
2021/08/12 06:28:50;;;;;;;10.03;5.33;;;17.40;99.90;;;;;;4440162;32;20158;-75
2021/08/12 06:31:17;;;;;;;8.70;5.20;;;17.40;99.90;;;;;;4439670;32;20158;-74
2021/08/12 06:33:44;;;;;;;9.37;4.90;;;17.50;99.90;;;;;;4439621;32;20142;-73
2021/08/12 06:36:11;;;;;;;11.97;4.90;;;17.60;99.90;;;;;;4440966;32;20157;-74
2021/08/12 06:38:38;;;;;;;7.63;4.40;;;17.70;99.90;;;;;;4441296;32;20142;-74
2021/08/12 06:41:05;;;;;;;7.83;4.33;;;17.70;99.90;;;;;;4440037;32;20256;-73
2021/08/12 06:43:31;;;;;;;6.63;4.30;;;17.80;99.90;;;;;;4441831;32;20174;-74
2021/08/12 06:45:58;;;;;;;7.40;4.27;;;17.80;99.90;;;;;;4441667;32;20186;-74
2021/08/12 06:48:25;;;;;;;8.43;4.30;;;17.90;99.90;;;;;;4441579;32;20166;-74
2021/08/12 06:50:52;;;;;;;6.63;4.00;;;18.10;99.90;;;;;;4439192;32;20190;-74
2021/08/12 06:53:19;;;;;;;8.50;3.77;;;18.10;99.90;;;;;;4441339;32;20135;-73
2021/08/12 06:55:46;;;;;;;8.57;3.47;;;18.20;99.90;;;;;;4440909;32;20160;-74
2021/08/12 06:58:12;;;;;;;5.00;3.20;;;18.30;99.90;;;;;;4441086;32;20175;-74
2021/08/12 07:00:39;;;;;;;5.07;3.40;;;18.30;99.90;;;;;;4439891;32;20289;-74
2021/08/12 07:03:06;;;;;;;6.00;3.53;;;18.40;99.90;;;;;;4440201;32;20150;-74
2021/08/12 07:05:33;;;;;;;5.53;3.30;;;18.40;99.90;;;;;;4440723;32;20165;-74
2021/08/12 07:08:00;;;;;;;5.07;3.43;;;18.40;99.90;;;;;;4439648;32;20173;-74
2021/08/12 07:10:27;;;;;;;8.33;3.50;;;18.50;99.90;;;;;;4439602;32;20150;-75
2021/08/12 07:12:54;;;;;;;6.80;3.60;;;18.60;99.90;;;;;;4441417;32;20135;-75
2021/08/12 07:15:21;;;;;;;8.60;3.87;;;18.70;99.90;;;;;;4441039;32;20424;-75
2021/08/12 07:17:48;;;;;;;6.93;3.50;;;18.80;99.90;;;;;;4439606;32;20406;-75
2021/08/12 07:20:15;;;;;;;8.97;3.60;;;18.80;99.90;;;;;;4439314;32;20149;-75
2021/08/12 07:22:42;;;;;;;6.27;3.30;;;18.90;99.90;;;;;;4440065;32;20126;-74
2021/08/12 07:25:09;;;;;;;5.00;2.90;;;19.00;99.90;;;;;;4439839;32;20476;-74
2021/08/12 07:27:36;;;;;;;3.87;2.70;;;19.00;99.90;;;;;;4438890;32;20181;-76
2021/08/12 07:30:05;;;;;;;6.70;2.90;;;19.00;99.90;;;;;;4438869;32;20383;-73
2021/08/12 07:32:31;;;;;;;5.73;3.20;;;19.20;99.90;;;;;;4440770;32;20142;-74
2021/08/12 07:34:58;;;;;;;6.53;3.40;;;19.30;99.90;;;;;;4440868;32;20127;-75
2021/08/12 07:37:26;;;;;;;5.73;3.23;;;19.30;99.90;;;;;;4440571;32;20142;-74
2021/08/12 07:39:52;;;;;;;4.63;3.00;;;19.30;99.90;;;;;;4439462;32;20166;-74
2021/08/12 07:42:19;;;;;;;7.07;3.13;;;19.50;99.90;;;;;;4440084;32;20214;-74
2021/08/12 07:44:47;;;;;;;6.13;3.10;;;19.60;99.90;;;;;;4440391;32;20127;-74
2021/08/12 07:47:14;;;;;;;5.43;3.20;;;19.70;99.90;;;;;;4438806;32;20449;-74
2021/08/12 07:49:41;;;;;;;4.73;2.77;;;19.70;99.90;;;;;;4440558;32;20427;-73
2021/08/12 07:52:07;;;;;;;5.37;3.13;;;19.70;99.90;;;;;;4440857;32;20179;-73
2021/08/12 07:54:35;;;;;;;8.30;3.13;;;19.70;99.90;;;;;;4441137;32;20187;-74
2021/08/12 07:57:04;;;;;;;5.37;3.23;;;19.70;99.90;;;;;;4440748;32;20437;-73
2021/08/12 07:59:30;;;;;;;5.13;2.77;;;19.80;99.90;;;;;;4438328;32;20146;-72
2021/08/12 08:01:57;;;;;;;5.20;3.13;;;19.80;99.90;;;;;;4438758;32;20160;-73
2021/08/12 08:04:24;;;;;;;4.27;2.40;;;19.70;99.90;;;;;;4440170;32;20131;-72
2021/08/12 08:06:51;;;;;;;5.17;2.60;;;19.70;99.90;;;;;;4439684;32;20135;-73
2021/08/12 08:09:18;;;;;;;4.60;2.50;;;19.90;99.90;;;;;;4438659;32;20135;-73
2021/08/12 08:11:44;;;;;;;5.50;2.57;;;20.10;99.90;;;;;;4438595;32;20463;-74
2021/08/12 08:14:11;;;;;;;4.50;2.50;;;20.30;99.90;;;;;;4438737;32;20179;-74
2021/08/12 08:16:38;;;;;;;3.23;2.40;;;20.90;99.90;;;;;;4439874;32;20310;-73
2021/08/12 08:19:05;;;;;;;3.90;2.80;;;21.50;99.90;;;;;;4438075;32;20143;-72
2021/08/12 08:21:31;;;;;;;4.73;3.10;;;22.00;99.90;;;;;;4437254;32;20193;-75
2021/08/12 08:23:58;;;;;;;4.50;2.92;;;22.80;99.90;;;;;;4436939;32;20383;-72
2021/08/12 08:26:25;;;;;;;3.97;2.92;;;23.00;99.90;;;;;;4439837;32;20350;-72
2021/08/12 08:28:52;;;;;;;17.15;3.53;;;23.50;99.90;;;;;;4439207;32;20182;-73
2021/08/12 08:31:18;;;;;;;6.00;2.80;;;23.80;99.90;;;;;;4440009;32;20150;-73
2021/08/12 08:33:45;;;;;;;6.12;3.10;;;23.80;99.90;;;;;;4440032;32;20155;-74
2021/08/12 08:36:12;;;;;;;4.78;3.00;;;23.60;99.90;;;;;;4440249;32;20126;-74
2021/08/12 08:38:39;;;;;;;6.15;3.22;;;24.00;99.90;;;;;;4438519;32;20134;-74
2021/08/12 08:41:07;;;;;;;3.45;2.62;;;24.40;99.90;;;;;;4439271;32;20152;-74
2021/08/12 08:43:34;;;;;;;3.92;2.67;;;24.20;99.90;;;;;;4439946;32;20154;-75
2021/08/12 08:46:02;;;;;;;4.03;2.78;;;24.10;99.90;;;;;;4436653;32;20453;-75
2021/08/12 08:48:34;;;;;;;4.18;3.00;;;23.60;99.90;;;;;;4430598;32;20208;-75
2021/08/12 08:51:02;;;;;;;3.45;2.80;;;23.60;99.90;;;;;;4433608;32;20146;-75
2021/08/12 08:53:30;;;;;;;6.72;4.00;;;23.80;99.90;;;;;;4432275;32;20198;-75
2021/08/12 08:55:57;;;;;;;5.43;4.47;;;24.40;99.90;;;;;;4428833;32;20366;-75
2021/08/12 08:58:25;;;;;;;5.32;3.37;;;24.70;99.90;;;;;;4432016;32;20159;-74
2021/08/12 09:00:52;;;;;;;4.00;3.00;;;24.80;99.90;;;;;;4434940;32;20165;-72
2021/08/12 09:03:19;;;;;;;5.87;2.92;;;24.20;99.90;;;;;;4438728;32;20150;-73
2021/08/12 09:05:47;;;;;;;5.72;2.90;;;23.10;99.90;;;;;;4432354;32;20458;-73
2021/08/12 09:08:14;;;;;;;3.87;2.80;;;23.70;99.90;;;;;;4437341;32;20543;-73
2021/08/12 09:10:40;;;;;;;3.37;2.72;;;24.30;99.90;;;;;;4439272;32;20153;-73
2021/08/12 09:13:08;;;;;;;4.30;3.10;;;24.10;99.90;;;;;;4433843;32;20142;-72
2021/08/12 09:15:42;;;;;;;4.93;2.95;;;24.30;99.90;;;;;;4423253;32;20148;-72
2021/08/12 09:18:21;;;;;;;3.85;3.00;;;24.30;99.90;;;;;;4430801;32;20448;-73
2021/08/12 09:20:50;;;;;;;4.85;2.45;;;24.20;99.90;;;;;;4436720;32;20134;-72
2021/08/12 09:23:28;;;;;;;4.95;2.85;;;23.90;99.90;;;;;;4437639;32;20191;-73
2021/08/12 09:25:57;;;;;;;3.40;2.50;;;23.50;99.90;;;;;;4441922;32;20264;-76
2021/08/12 09:28:27;;;;;;;4.28;2.87;;;23.80;99.90;;;;;;4440269;32;20227;-76
2021/08/12 09:31:00;;;;;;;3.08;2.60;;;24.10;99.90;;;;;;4442082;32;20181;-74
2021/08/12 09:33:30;;;;;;;5.25;3.00;;;25.00;99.90;;;;;;4439794;32;20472;-74
2021/08/12 09:35:58;;;;;;;4.65;2.95;;;25.30;99.90;;;;;;4435740;32;20146;-73
2021/08/12 09:38:25;;;;;;;3.70;2.80;;;25.90;99.90;;;;;;4433229;32;20549;-73
2021/08/12 09:40:58;;;;;;;7.72;3.08;;;26.40;98.40;;;;;;4429805;32;20143;-73
2021/08/12 09:43:30;;;;;;;6.22;2.85;;;27.00;98.60;;;;;;4435499;32;20184;-73
2021/08/12 09:45:57;;;;;;;6.20;2.90;;;27.00;96.20;;;;;;4441632;32;20162;-75
2021/08/12 09:48:24;;;;;;;3.58;2.60;;;26.80;95.10;;;;;;4440799;32;20209;-74
2021/08/12 09:51:01;;;;;;;3.25;2.58;;;26.40;95.30;;;;;;4440968;32;20555;-74
2021/08/12 09:53:28;;;;;;;4.15;2.55;;;26.30;93.20;;;;;;4442134;32;20395;-74
2021/08/12 09:56:07;;;;;;;3.70;2.50;;;26.40;95.50;;;;;;4441625;32;20165;-73
2021/08/12 09:58:35;;;;;;;3.33;2.60;;;27.10;94.70;;;;;;4441038;32;20211;-74
2021/08/12 10:01:25;;;;;;;4.82;2.65;;;27.60;93.90;;;;;;4442257;32;20217;-74
2021/08/12 10:03:54;;;;;;;4.00;2.62;;;27.90;92.90;;;;;;4431319;32;20154;-74
2021/08/12 10:06:24;;;;;;;3.60;2.40;;;27.60;90.40;;;;;;4435435;32;20164;-74
2021/08/12 10:08:51;;;;;;;3.28;2.40;;;27.40;90.90;;;;;;4433119;32;20207;-73
2021/08/12 10:11:26;;;;;;;5.03;2.40;;;27.60;91.10;;;;;;4441477;32;20211;-75
2021/08/12 10:14:01;;;;;;;3.28;2.33;;;27.50;90.40;;;;;;4432067;32;20449;-75
2021/08/12 10:16:31;;;;;;;4.07;2.70;;;27.40;86.90;;;;;;4426593;32;20211;-74
2021/08/12 10:19:00;;;;;;;8.38;2.80;;;27.30;90.00;;;;;;4426405;32;20147;-75
2021/08/12 10:21:28;;;;;;;5.22;2.35;;;28.00;86.90;;;;;;4426685;32;20150;-74
2021/08/12 10:23:57;;;;;;;4.10;2.30;;;28.10;88.40;;;;;;4426557;32;20288;-74
2021/08/12 10:26:26;;;;;;;3.72;2.30;;;28.60;85.60;;;;;;4424640;32;20276;-75
2021/08/12 10:29:02;;;;;;;4.87;2.33;;;29.10;83.20;;;;;;4424863;32;20163;-74
2021/08/12 10:31:29;;;;;;;5.82;2.45;;;28.80;80.40;;;;;;4426428;32;20235;-74
2021/08/12 10:33:57;;;;;;;4.15;2.42;;;29.20;79.50;;;;;;4425178;32;20131;-74
2021/08/12 10:36:25;;;;;;;4.05;2.25;;;29.60;76.40;;;;;;4425326;32;20131;-75
2021/08/12 10:38:53;;;;;;;2.53;2.30;;;29.90;73.30;;;;;;4426671;32;20480;-75
2021/08/12 10:41:20;;;;;;;3.45;2.40;;;29.60;72.40;;;;;;4438380;32;20203;-75
2021/08/12 10:43:55;;;;;;;3.00;2.25;;;29.80;71.40;;;;;;4441298;32;20122;-75
2021/08/12 10:46:36;;;;;;;3.58;2.40;;;29.50;70.80;;;;;;4441939;32;20190;-75
2021/08/12 10:49:34;;;;;;;2.92;2.05;;;29.50;70.00;;;;;;4441853;32;20138;-75
2021/08/12 10:52:06;;;;;;;2.50;2.15;;;30.00;72.30;;;;;;4404588;32;20606;-74
2021/08/12 10:54:35;;;;;;;4.55;2.40;;;30.20;68.70;;;;;;4406900;32;20151;-74
2021/08/12 10:57:14;;;;;;;4.62;2.33;;;29.80;65.00;;;;;;4407591;32;20298;-73
2021/08/12 10:59:41;;;;;;;3.58;2.30;;;29.50;67.80;;;;;;4408599;32;20403;-73
2021/08/12 11:02:46;;;;;;;5.80;2.67;;;29.40;68.60;;;;;;4406875;32;20450;-74
2021/08/12 11:05:13;;;;;;;3.15;2.53;;;29.60;70.00;;;;;;4345330;33;20451;-75
2021/08/12 11:07:43;;;;;;;3.47;2.60;;;28.90;68.90;;;;;;4340787;33;20176;-74
2021/08/12 11:10:12;;;;;;;3.17;2.67;;;29.20;69.20;;;;;;4346774;33;20175;-75
2021/08/12 11:12:56;;;;;;;3.03;2.40;;;28.40;69.30;;;;;;4339995;33;20157;-74
2021/08/12 11:15:40;;;;;;;4.60;2.40;;;27.90;73.30;;;;;;4346623;33;20206;-75
2021/08/12 11:18:13;;;;;;;3.95;2.42;;;29.20;72.60;;;;;;4347982;33;20361;-75
2021/08/12 11:20:43;;;;;;;3.70;2.55;;;30.20;68.10;;;;;;4348219;33;20518;-76
2021/08/12 11:23:21;;;;;;;3.95;3.40;;;30.40;66.60;;;;;;4347452;33;20406;-73
2021/08/12 11:26:00;;;;;;;5.70;3.53;;;29.20;65.20;;;;;;4347004;33;20501;-74
2021/08/12 11:28:39;;;;;;;3.87;2.50;;;28.90;68.90;;;;;;4368700;32;20552;-75
2021/08/12 11:31:29;;;;;;;3.20;2.70;;;29.00;69.10;;;;;;4392641;32;20631;-74
2021/08/12 11:34:01;;;;;;;3.37;2.67;;;29.40;69.00;;;;;;4391497;32;20169;-74
2021/08/12 11:36:34;;;;;;;4.47;2.90;;;29.80;69.00;;;;;;4423244;32;20154;-74
2021/08/12 11:39:09;;;;;;;4.00;2.85;;;29.60;70.60;;;;;;4430452;32;20139;-74
2021/08/12 11:41:43;;;;;;;5.70;2.67;;;30.20;69.30;;;;;;4425205;32;20251;-75
2021/08/12 11:44:12;;;;;;;3.15;2.55;;;30.10;67.00;;;;;;4425231;32;20130;-75
2021/08/12 11:46:40;;;;;;;4.97;3.05;;;30.70;64.80;;;;;;4424177;32;20131;-74
2021/08/12 11:49:13;;;;;;;4.00;3.12;;;31.70;64.00;;;;;;4423025;32;20123;-75
2021/08/12 11:51:40;;;;;;;3.03;2.70;;;31.90;60.20;;;;;;4425063;32;20134;-74
2021/08/12 11:54:09;;;;;;;5.62;2.90;;;32.10;59.50;;;;;;4424052;32;20180;-74
2021/08/12 11:56:37;;;;;;;3.35;2.78;;;32.60;58.40;;;;;;4425008;32;20180;-75
2021/08/12 11:59:05;;;;;;;4.07;2.42;;;32.40;57.90;;;;;;4429084;32;20185;-74
2021/08/12 12:01:34;;;;;;;3.10;2.80;;;32.50;57.20;;;;;;4437080;32;20146;-74
2021/08/12 12:04:04;;;;;;;4.32;2.80;;;32.60;56.20;;;;;;4433871;32;20211;-75
2021/08/12 12:06:38;;;;;;;3.85;2.62;;;31.80;56.20;;;;;;4424339;32;20422;-74
2021/08/12 12:09:24;;;;;;;3.25;2.72;;;31.10;58.20;;;;;;4424844;32;20165;-75
2021/08/12 12:11:56;;;;;;;3.97;2.97;;;30.00;59.50;;;;;;4424715;32;20394;-75
2021/08/12 12:14:25;;;;;;;5.12;3.50;;;28.90;63.70;;;;;;4424772;32;20157;-75
2021/08/12 12:17:16;;;;;;;5.78;3.00;;;28.40;65.70;;;;;;4423198;32;20432;-76
2021/08/12 12:20:07;;;;;;;4.40;3.00;;;28.50;67.70;;;;;;4423065;32;20192;-75
2021/08/12 12:22:37;;;;;;;3.92;2.50;;;29.50;68.20;;;;;;4424103;32;20214;-76
2021/08/12 12:25:06;;;;;;;3.45;2.40;;;30.20;63.80;;;;;;4424757;32;20180;-75
2021/08/12 12:27:34;;;;;;;4.20;2.80;;;30.40;60.30;;;;;;4423804;32;20172;-75
2021/08/12 12:30:11;;;;;;;4.43;2.55;;;31.10;59.70;;;;;;4422633;32;20147;-74
2021/08/12 12:32:39;;;;;;;3.05;2.40;;;31.30;58.40;;;;;;4423893;32;20151;-75
2021/08/12 12:35:07;;;;;;;4.28;2.65;;;31.30;59.00;;;;;;4425108;32;20167;-75
2021/08/12 12:37:36;;;;;;;3.25;2.45;;;31.20;57.70;;;;;;4424657;32;20131;-74
2021/08/12 12:40:06;;;;;;;3.62;2.35;;;32.20;58.00;;;;;;4424890;32;20135;-74
2021/08/12 12:42:37;;;;;;;4.10;2.50;;;33.20;54.90;;;;;;4424965;32;20218;-73
2021/08/12 12:45:06;;;;;;;3.50;2.58;;;33.10;57.60;;;;;;4424863;32;20183;-73
2021/08/12 12:47:33;;;;;;;4.40;2.40;;;33.10;55.10;;;;;;4424467;32;20467;-73
2021/08/12 12:50:11;;;;;;;3.25;2.40;;;33.40;54.80;;;;;;4428683;32;20143;-75